sensor_id;sensor_type;location;lat;lon;timestamp;P1;durP1;ratioP1;P2;durP2;ratioP2
75169;SDS011;63749;49.186;9.222;2023-02-28T00:01:02;7.10;;;4.13;;
75169;SDS011;63749;49.186;9.222;2023-02-28T00:03:27;7.40;;;3.85;;
75169;SDS011;63749;49.186;9.222;2023-02-28T00:05:53;6.53;;;3.50;;
75169;SDS011;63749;49.186;9.222;2023-02-28T00:08:18;7.97;;;3.77;;
75169;SDS011;63749;49.186;9.222;2023-02-28T00:10:44;6.47;;;3.60;;
75169;SDS011;63749;49.186;9.222;2023-02-28T00:13:09;8.18;;;3.78;;
75169;SDS011;63749;49.186;9.222;2023-02-28T00:15:35;7.50;;;3.87;;
75169;SDS011;63749;49.186;9.222;2023-02-28T00:18:01;9.18;;;4.40;;
75169;SDS011;63749;49.186;9.222;2023-02-28T00:20:28;7.03;;;3.70;;
75169;SDS011;63749;49.186;9.222;2023-02-28T00:22:54;7.78;;;3.83;;
75169;SDS011;63749;49.186;9.222;2023-02-28T00:25:21;7.13;;;3.10;;
75169;SDS011;63749;49.186;9.222;2023-02-28T00:27:48;8.02;;;3.45;;
75169;SDS011;63749;49.186;9.222;2023-02-28T00:30:15;7.15;;;3.30;;
75169;SDS011;63749;49.186;9.222;2023-02-28T00:32:42;8.68;;;3.88;;
75169;SDS011;63749;49.186;9.222;2023-02-28T00:35:09;8.00;;;4.00;;
75169;SDS011;63749;49.186;9.222;2023-02-28T00:37:35;8.23;;;4.00;;
75169;SDS011;63749;49.186;9.222;2023-02-28T00:40:00;10.40;;;4.23;;
75169;SDS011;63749;49.186;9.222;2023-02-28T00:42:27;8.10;;;4.70;;
75169;SDS011;63749;49.186;9.222;2023-02-28T00:44:54;7.38;;;3.67;;
75169;SDS011;63749;49.186;9.222;2023-02-28T00:47:19;8.33;;;4.13;;
75169;SDS011;63749;49.186;9.222;2023-02-28T00:49:45;6.63;;;2.77;;
75169;SDS011;63749;49.186;9.222;2023-02-28T00:52:10;6.88;;;3.50;;
75169;SDS011;63749;49.186;9.222;2023-02-28T00:54:35;7.50;;;4.17;;
75169;SDS011;63749;49.186;9.222;2023-02-28T00:57:01;8.37;;;3.93;;
75169;SDS011;63749;49.186;9.222;2023-02-28T00:59:26;6.93;;;3.23;;
75169;SDS011;63749;49.186;9.222;2023-02-28T01:01:52;7.47;;;3.65;;
75169;SDS011;63749;49.186;9.222;2023-02-28T01:04:17;6.53;;;3.70;;
75169;SDS011;63749;49.186;9.222;2023-02-28T01:06:42;8.47;;;4.00;;
75169;SDS011;63749;49.186;9.222;2023-02-28T01:09:08;6.20;;;3.40;;
75169;SDS011;63749;49.186;9.222;2023-02-28T01:11:34;6.93;;;3.33;;
75169;SDS011;63749;49.186;9.222;2023-02-28T01:14:00;8.50;;;3.83;;
75169;SDS011;63749;49.186;9.222;2023-02-28T01:16:26;9.02;;;4.32;;
75169;SDS011;63749;49.186;9.222;2023-02-28T01:18:52;5.65;;;2.85;;
75169;SDS011;63749;49.186;9.222;2023-02-28T01:21:18;8.93;;;4.50;;
75169;SDS011;63749;49.186;9.222;2023-02-28T01:23:46;7.50;;;3.92;;
75169;SDS011;63749;49.186;9.222;2023-02-28T01:26:13;9.75;;;4.38;;
75169;SDS011;63749;49.186;9.222;2023-02-28T01:28:40;9.07;;;4.28;;
75169;SDS011;63749;49.186;9.222;2023-02-28T01:31:06;6.33;;;3.33;;
75169;SDS011;63749;49.186;9.222;2023-02-28T01:33:33;8.85;;;4.30;;
75169;SDS011;63749;49.186;9.222;2023-02-28T01:36:02;8.82;;;3.95;;
75169;SDS011;63749;49.186;9.222;2023-02-28T01:38:29;8.47;;;4.33;;
75169;SDS011;63749;49.186;9.222;2023-02-28T01:40:55;7.68;;;3.47;;
75169;SDS011;63749;49.186;9.222;2023-02-28T01:43:24;9.63;;;4.50;;
75169;SDS011;63749;49.186;9.222;2023-02-28T01:46:13;8.20;;;4.30;;
75169;SDS011;63749;49.186;9.222;2023-02-28T01:48:42;9.88;;;4.97;;
75169;SDS011;63749;49.186;9.222;2023-02-28T01:51:13;8.63;;;4.77;;
75169;SDS011;63749;49.186;9.222;2023-02-28T01:53:49;10.25;;;4.68;;
75169;SDS011;63749;49.186;9.222;2023-02-28T01:56:20;7.88;;;4.18;;
75169;SDS011;63749;49.186;9.222;2023-02-28T01:58:49;9.43;;;4.40;;
75169;SDS011;63749;49.186;9.222;2023-02-28T02:01:17;8.35;;;4.20;;
75169;SDS011;63749;49.186;9.222;2023-02-28T02:03:49;9.27;;;4.30;;
75169;SDS011;63749;49.186;9.222;2023-02-28T02:06:22;10.40;;;4.50;;
75169;SDS011;63749;49.186;9.222;2023-02-28T02:08:49;7.72;;;3.45;;
75169;SDS011;63749;49.186;9.222;2023-02-28T02:11:16;8.60;;;4.43;;
75169;SDS011;63749;49.186;9.222;2023-02-28T02:16:22;9.57;;;4.28;;
75169;SDS011;63749;49.186;9.222;2023-02-28T02:19:37;9.18;;;4.43;;
75169;SDS011;63749;49.186;9.222;2023-02-28T02:33:48;7.45;;;4.05;;
75169;SDS011;63749;49.186;9.222;2023-02-28T02:37:14;8.87;;;4.50;;
75169;SDS011;63749;49.186;9.222;2023-02-28T02:45:31;10.98;;;4.75;;
75169;SDS011;63749;49.186;9.222;2023-02-28T02:48:03;8.90;;;4.38;;
75169;SDS011;63749;49.186;9.222;2023-02-28T02:50:33;9.93;;;4.83;;
75169;SDS011;63749;49.186;9.222;2023-02-28T02:53:05;10.65;;;4.72;;
75169;SDS011;63749;49.186;9.222;2023-02-28T02:55:34;9.25;;;4.53;;
75169;SDS011;63749;49.186;9.222;2023-02-28T02:58:05;9.77;;;4.50;;
75169;SDS011;63749;49.186;9.222;2023-02-28T03:00:42;9.77;;;4.88;;
75169;SDS011;63749;49.186;9.222;2023-02-28T03:03:13;9.57;;;4.43;;
75169;SDS011;63749;49.186;9.222;2023-02-28T03:05:44;7.50;;;3.80;;
75169;SDS011;63749;49.186;9.222;2023-02-28T03:08:13;9.10;;;4.57;;
75169;SDS011;63749;49.186;9.222;2023-02-28T03:10:43;9.32;;;4.45;;
75169;SDS011;63749;49.186;9.222;2023-02-28T03:21:13;10.88;;;4.50;;
75169;SDS011;63749;49.186;9.222;2023-02-28T03:26:29;9.50;;;4.30;;
75169;SDS011;63749;49.186;9.222;2023-02-28T03:31:33;10.00;;;4.10;;
75169;SDS011;63749;49.186;9.222;2023-02-28T03:34:05;10.80;;;4.55;;
75169;SDS011;63749;49.186;9.222;2023-02-28T03:36:38;9.80;;;4.60;;
75169;SDS011;63749;49.186;9.222;2023-02-28T03:39:09;8.67;;;4.13;;
75169;SDS011;63749;49.186;9.222;2023-02-28T03:41:43;10.88;;;4.80;;
75169;SDS011;63749;49.186;9.222;2023-02-28T03:44:16;9.88;;;4.70;;
75169;SDS011;63749;49.186;9.222;2023-02-28T03:46:47;10.07;;;4.70;;
75169;SDS011;63749;49.186;9.222;2023-02-28T03:49:18;9.75;;;4.43;;
75169;SDS011;63749;49.186;9.222;2023-02-28T03:51:48;11.53;;;4.67;;
75169;SDS011;63749;49.186;9.222;2023-02-28T03:54:16;10.95;;;5.10;;
75169;SDS011;63749;49.186;9.222;2023-02-28T03:57:22;9.73;;;4.75;;
75169;SDS011;63749;49.186;9.222;2023-02-28T03:59:59;11.65;;;4.53;;
75169;SDS011;63749;49.186;9.222;2023-02-28T04:02:30;9.98;;;4.80;;
75169;SDS011;63749;49.186;9.222;2023-02-28T04:04:56;8.53;;;3.77;;
75169;SDS011;63749;49.186;9.222;2023-02-28T04:07:22;8.82;;;4.55;;
75169;SDS011;63749;49.186;9.222;2023-02-28T04:09:47;8.77;;;4.40;;
75169;SDS011;63749;49.186;9.222;2023-02-28T04:12:13;10.77;;;4.57;;
75169;SDS011;63749;49.186;9.222;2023-02-28T04:14:38;9.07;;;4.60;;
75169;SDS011;63749;49.186;9.222;2023-02-28T04:17:03;9.85;;;4.32;;
75169;SDS011;63749;49.186;9.222;2023-02-28T04:19:29;9.37;;;4.50;;
75169;SDS011;63749;49.186;9.222;2023-02-28T04:21:54;9.87;;;4.73;;
75169;SDS011;63749;49.186;9.222;2023-02-28T04:24:21;6.60;;;3.60;;
75169;SDS011;63749;49.186;9.222;2023-02-28T04:26:50;8.93;;;4.50;;
75169;SDS011;63749;49.186;9.222;2023-02-28T04:29:21;9.73;;;4.90;;
75169;SDS011;63749;49.186;9.222;2023-02-28T04:31:55;9.52;;;4.43;;
75169;SDS011;63749;49.186;9.222;2023-02-28T04:34:24;10.93;;;4.80;;
75169;SDS011;63749;49.186;9.222;2023-02-28T04:36:53;8.77;;;4.50;;
75169;SDS011;63749;49.186;9.222;2023-02-28T04:39:20;11.48;;;4.65;;
75169;SDS011;63749;49.186;9.222;2023-02-28T04:41:46;8.85;;;4.35;;
75169;SDS011;63749;49.186;9.222;2023-02-28T04:44:12;9.10;;;4.57;;
75169;SDS011;63749;49.186;9.222;2023-02-28T04:46:38;8.83;;;4.40;;
75169;SDS011;63749;49.186;9.222;2023-02-28T04:49:03;10.10;;;4.95;;
75169;SDS011;63749;49.186;9.222;2023-02-28T04:51:28;10.53;;;5.00;;
75169;SDS011;63749;49.186;9.222;2023-02-28T04:53:54;10.40;;;5.10;;
75169;SDS011;63749;49.186;9.222;2023-02-28T04:56:19;10.27;;;4.83;;
75169;SDS011;63749;49.186;9.222;2023-02-28T04:58:45;11.05;;;3.97;;
75169;SDS011;63749;49.186;9.222;2023-02-28T05:01:18;9.37;;;4.30;;
75169;SDS011;63749;49.186;9.222;2023-02-28T05:03:46;9.85;;;4.78;;
75169;SDS011;63749;49.186;9.222;2023-02-28T05:06:12;11.00;;;4.67;;
75169;SDS011;63749;49.186;9.222;2023-02-28T05:08:38;10.82;;;4.90;;
75169;SDS011;63749;49.186;9.222;2023-02-28T05:11:05;10.75;;;4.80;;
75169;SDS011;63749;49.186;9.222;2023-02-28T05:13:32;10.57;;;5.00;;
75169;SDS011;63749;49.186;9.222;2023-02-28T05:15:57;9.63;;;4.57;;
75169;SDS011;63749;49.186;9.222;2023-02-28T05:18:22;12.37;;;5.23;;
75169;SDS011;63749;49.186;9.222;2023-02-28T05:20:48;10.07;;;4.70;;
75169;SDS011;63749;49.186;9.222;2023-02-28T05:23:13;10.68;;;4.72;;
75169;SDS011;63749;49.186;9.222;2023-02-28T05:25:47;9.60;;;4.40;;
75169;SDS011;63749;49.186;9.222;2023-02-28T05:28:13;10.32;;;4.80;;
75169;SDS011;63749;49.186;9.222;2023-02-28T05:30:39;11.63;;;4.60;;
75169;SDS011;63749;49.186;9.222;2023-02-28T05:33:04;10.25;;;4.72;;
75169;SDS011;63749;49.186;9.222;2023-02-28T05:35:30;11.80;;;5.20;;
75169;SDS011;63749;49.186;9.222;2023-02-28T05:37:55;10.40;;;4.97;;
75169;SDS011;63749;49.186;9.222;2023-02-28T05:40:20;11.97;;;4.87;;
75169;SDS011;63749;49.186;9.222;2023-02-28T05:42:46;9.77;;;5.07;;
75169;SDS011;63749;49.186;9.222;2023-02-28T05:45:12;8.90;;;4.23;;
75169;SDS011;63749;49.186;9.222;2023-02-28T05:47:37;9.63;;;4.65;;
75169;SDS011;63749;49.186;9.222;2023-02-28T05:50:03;10.17;;;4.60;;
75169;SDS011;63749;49.186;9.222;2023-02-28T05:52:29;8.30;;;3.80;;
75169;SDS011;63749;49.186;9.222;2023-02-28T05:54:55;11.83;;;4.87;;
75169;SDS011;63749;49.186;9.222;2023-02-28T05:57:21;10.23;;;4.90;;
75169;SDS011;63749;49.186;9.222;2023-02-28T05:59:47;10.57;;;5.30;;
75169;SDS011;63749;49.186;9.222;2023-02-28T06:02:13;9.93;;;5.20;;
75169;SDS011;63749;49.186;9.222;2023-02-28T06:04:40;7.82;;;3.10;;
75169;SDS011;63749;49.186;9.222;2023-02-28T06:07:06;11.83;;;5.33;;
75169;SDS011;63749;49.186;9.222;2023-02-28T06:09:32;11.45;;;5.57;;
75169;SDS011;63749;49.186;9.222;2023-02-28T06:11:58;8.52;;;4.15;;
75169;SDS011;63749;49.186;9.222;2023-02-28T06:14:24;10.37;;;5.37;;
75169;SDS011;63749;49.186;9.222;2023-02-28T06:16:50;9.30;;;5.15;;
75169;SDS011;63749;49.186;9.222;2023-02-28T06:19:15;10.63;;;5.07;;
75169;SDS011;63749;49.186;9.222;2023-02-28T06:21:41;12.77;;;4.93;;
75169;SDS011;63749;49.186;9.222;2023-02-28T06:24:06;10.95;;;5.30;;
75169;SDS011;63749;49.186;9.222;2023-02-28T06:26:32;11.13;;;5.10;;
75169;SDS011;63749;49.186;9.222;2023-02-28T06:28:58;9.98;;;5.10;;
75169;SDS011;63749;49.186;9.222;2023-02-28T06:31:23;12.00;;;5.33;;
75169;SDS011;63749;49.186;9.222;2023-02-28T06:33:50;9.48;;;4.78;;
75169;SDS011;63749;49.186;9.222;2023-02-28T06:36:16;11.20;;;5.70;;
75169;SDS011;63749;49.186;9.222;2023-02-28T06:38:43;11.75;;;5.60;;
75169;SDS011;63749;49.186;9.222;2023-02-28T06:41:09;12.18;;;5.70;;
75169;SDS011;63749;49.186;9.222;2023-02-28T06:43:41;12.40;;;5.82;;
75169;SDS011;63749;49.186;9.222;2023-02-28T06:46:07;13.13;;;6.00;;
75169;SDS011;63749;49.186;9.222;2023-02-28T06:48:35;12.27;;;5.80;;
75169;SDS011;63749;49.186;9.222;2023-02-28T06:51:04;12.88;;;6.00;;
75169;SDS011;63749;49.186;9.222;2023-02-28T06:53:32;11.25;;;6.03;;
75169;SDS011;63749;49.186;9.222;2023-02-28T06:55:58;13.37;;;5.57;;
75169;SDS011;63749;49.186;9.222;2023-02-28T06:58:23;12.13;;;5.93;;
75169;SDS011;63749;49.186;9.222;2023-02-28T07:00:50;11.57;;;5.47;;
75169;SDS011;63749;49.186;9.222;2023-02-28T07:03:17;11.18;;;5.53;;
75169;SDS011;63749;49.186;9.222;2023-02-28T07:05:43;5.13;;;2.60;;
75169;SDS011;63749;49.186;9.222;2023-02-28T07:08:09;10.70;;;5.20;;
75169;SDS011;63749;49.186;9.222;2023-02-28T07:10:38;11.70;;;5.67;;
75169;SDS011;63749;49.186;9.222;2023-02-28T07:13:04;12.63;;;6.38;;
75169;SDS011;63749;49.186;9.222;2023-02-28T07:15:30;12.30;;;5.13;;
75169;SDS011;63749;49.186;9.222;2023-02-28T07:17:55;11.73;;;5.77;;
75169;SDS011;63749;49.186;9.222;2023-02-28T07:20:21;9.88;;;5.47;;
75169;SDS011;63749;49.186;9.222;2023-02-28T07:22:48;10.75;;;5.78;;
75169;SDS011;63749;49.186;9.222;2023-02-28T07:25:20;12.73;;;6.07;;
75169;SDS011;63749;49.186;9.222;2023-02-28T07:27:46;13.73;;;5.85;;
75169;SDS011;63749;49.186;9.222;2023-02-28T07:30:11;9.80;;;4.50;;
75169;SDS011;63749;49.186;9.222;2023-02-28T07:32:37;12.20;;;5.60;;
75169;SDS011;63749;49.186;9.222;2023-02-28T07:35:02;10.63;;;5.40;;
75169;SDS011;63749;49.186;9.222;2023-02-28T07:37:28;12.60;;;6.30;;
75169;SDS011;63749;49.186;9.222;2023-02-28T07:39:56;11.57;;;6.00;;
75169;SDS011;63749;49.186;9.222;2023-02-28T07:42:22;10.50;;;5.47;;
75169;SDS011;63749;49.186;9.222;2023-02-28T07:44:47;9.70;;;4.83;;
75169;SDS011;63749;49.186;9.222;2023-02-28T07:47:12;13.55;;;6.03;;
75169;SDS011;63749;49.186;9.222;2023-02-28T07:49:38;11.63;;;5.83;;
75169;SDS011;63749;49.186;9.222;2023-02-28T07:52:04;12.73;;;6.00;;
75169;SDS011;63749;49.186;9.222;2023-02-28T07:54:31;11.50;;;6.00;;
75169;SDS011;63749;49.186;9.222;2023-02-28T07:56:57;12.00;;;6.28;;
75169;SDS011;63749;49.186;9.222;2023-02-28T07:59:22;10.57;;;4.23;;
75169;SDS011;63749;49.186;9.222;2023-02-28T08:01:48;10.52;;;5.00;;
75169;SDS011;63749;49.186;9.222;2023-02-28T08:04:15;10.17;;;5.03;;
75169;SDS011;63749;49.186;9.222;2023-02-28T08:06:41;11.93;;;6.10;;
75169;SDS011;63749;49.186;9.222;2023-02-28T08:09:06;11.57;;;5.80;;
75169;SDS011;63749;49.186;9.222;2023-02-28T08:11:32;9.35;;;4.32;;
75169;SDS011;63749;49.186;9.222;2023-02-28T08:13:57;12.43;;;5.63;;
75169;SDS011;63749;49.186;9.222;2023-02-28T08:16:23;13.27;;;6.13;;
75169;SDS011;63749;49.186;9.222;2023-02-28T08:18:49;11.07;;;4.87;;
75169;SDS011;63749;49.186;9.222;2023-02-28T08:21:17;11.90;;;6.10;;
75169;SDS011;63749;49.186;9.222;2023-02-28T08:23:43;13.60;;;6.03;;
75169;SDS011;63749;49.186;9.222;2023-02-28T08:26:08;11.03;;;5.93;;
75169;SDS011;63749;49.186;9.222;2023-02-28T08:28:34;13.60;;;6.20;;
75169;SDS011;63749;49.186;9.222;2023-02-28T08:30:59;12.60;;;6.35;;
75169;SDS011;63749;49.186;9.222;2023-02-28T08:33:25;13.87;;;6.67;;
75169;SDS011;63749;49.186;9.222;2023-02-28T08:35:55;14.38;;;6.38;;
75169;SDS011;63749;49.186;9.222;2023-02-28T08:38:21;12.57;;;6.10;;
75169;SDS011;63749;49.186;9.222;2023-02-28T08:40:48;11.88;;;6.22;;
75169;SDS011;63749;49.186;9.222;2023-02-28T08:43:13;12.47;;;6.33;;
75169;SDS011;63749;49.186;9.222;2023-02-28T08:45:39;11.73;;;6.05;;
75169;SDS011;63749;49.186;9.222;2023-02-28T08:48:04;14.50;;;6.60;;
75169;SDS011;63749;49.186;9.222;2023-02-28T08:50:29;14.13;;;6.63;;
75169;SDS011;63749;49.186;9.222;2023-02-28T08:52:55;10.67;;;5.60;;
75169;SDS011;63749;49.186;9.222;2023-02-28T08:55:20;13.20;;;6.43;;
75169;SDS011;63749;49.186;9.222;2023-02-28T08:57:46;13.43;;;6.03;;
75169;SDS011;63749;49.186;9.222;2023-02-28T09:00:11;13.57;;;6.70;;
75169;SDS011;63749;49.186;9.222;2023-02-28T09:02:38;11.77;;;6.28;;
75169;SDS011;63749;49.186;9.222;2023-02-28T09:05:05;12.63;;;6.63;;
75169;SDS011;63749;49.186;9.222;2023-02-28T09:07:30;13.82;;;6.82;;
75169;SDS011;63749;49.186;9.222;2023-02-28T09:09:56;8.57;;;4.43;;
75169;SDS011;63749;49.186;9.222;2023-02-28T09:12:26;13.48;;;6.65;;
75169;SDS011;63749;49.186;9.222;2023-02-28T09:14:52;12.40;;;6.53;;
75169;SDS011;63749;49.186;9.222;2023-02-28T09:17:18;11.57;;;6.13;;
75169;SDS011;63749;49.186;9.222;2023-02-28T09:19:44;11.48;;;5.55;;
75169;SDS011;63749;49.186;9.222;2023-02-28T09:22:12;12.38;;;6.10;;
75169;SDS011;63749;49.186;9.222;2023-02-28T09:24:38;12.13;;;5.27;;
75169;SDS011;63749;49.186;9.222;2023-02-28T09:27:03;11.98;;;6.00;;
75169;SDS011;63749;49.186;9.222;2023-02-28T09:29:30;11.23;;;5.70;;
75169;SDS011;63749;49.186;9.222;2023-02-28T09:31:56;8.82;;;3.88;;
75169;SDS011;63749;49.186;9.222;2023-02-28T09:34:28;10.45;;;5.72;;
75169;SDS011;63749;49.186;9.222;2023-02-28T09:36:55;12.35;;;6.65;;
75169;SDS011;63749;49.186;9.222;2023-02-28T09:39:21;11.77;;;6.00;;
75169;SDS011;63749;49.186;9.222;2023-02-28T09:41:49;13.38;;;7.10;;
75169;SDS011;63749;49.186;9.222;2023-02-28T09:47:36;13.33;;;6.50;;
75169;SDS011;63749;49.186;9.222;2023-02-28T09:49:45;14.68;;;7.50;;
75169;SDS011;63749;49.186;9.222;2023-02-28T09:52:16;11.13;;;5.43;;
75169;SDS011;63749;49.186;9.222;2023-02-28T09:54:44;11.00;;;5.90;;
75169;SDS011;63749;49.186;9.222;2023-02-28T09:57:31;13.00;;;6.87;;
75169;SDS011;63749;49.186;9.222;2023-02-28T10:00:03;14.80;;;7.40;;
75169;SDS011;63749;49.186;9.222;2023-02-28T10:05:11;15.25;;;7.03;;
75169;SDS011;63749;49.186;9.222;2023-02-28T10:10:32;12.55;;;6.80;;
75169;SDS011;63749;49.186;9.222;2023-02-28T10:13:02;13.73;;;6.97;;
75169;SDS011;63749;49.186;9.222;2023-02-28T10:15:41;17.02;;;6.88;;
75169;SDS011;63749;49.186;9.222;2023-02-28T10:18:10;17.98;;;7.40;;
75169;SDS011;63749;49.186;9.222;2023-02-28T10:20:39;12.50;;;6.93;;
75169;SDS011;63749;49.186;9.222;2023-02-28T10:23:18;14.45;;;7.32;;
75169;SDS011;63749;49.186;9.222;2023-02-28T10:26:20;12.55;;;6.80;;
75169;SDS011;63749;49.186;9.222;2023-02-28T10:28:41;12.65;;;7.03;;
75169;SDS011;63749;49.186;9.222;2023-02-28T10:31:08;13.37;;;7.07;;
75169;SDS011;63749;49.186;9.222;2023-02-28T10:33:39;14.05;;;7.50;;
75169;SDS011;63749;49.186;9.222;2023-02-28T10:36:04;13.47;;;7.23;;
75169;SDS011;63749;49.186;9.222;2023-02-28T10:38:35;12.38;;;7.28;;
75169;SDS011;63749;49.186;9.222;2023-02-28T10:41:06;10.98;;;5.25;;
75169;SDS011;63749;49.186;9.222;2023-02-28T10:43:33;13.68;;;7.60;;
75169;SDS011;63749;49.186;9.222;2023-02-28T10:48:32;15.50;;;7.70;;
75169;SDS011;63749;49.186;9.222;2023-02-28T10:51:01;15.30;;;8.07;;
75169;SDS011;63749;49.186;9.222;2023-02-28T10:53:33;13.90;;;7.40;;
75169;SDS011;63749;49.186;9.222;2023-02-28T11:03:56;12.25;;;6.72;;
75169;SDS011;63749;49.186;9.222;2023-02-28T11:06:26;13.10;;;7.47;;
75169;SDS011;63749;49.186;9.222;2023-02-28T11:08:56;13.30;;;7.93;;
75169;SDS011;63749;49.186;9.222;2023-02-28T11:11:43;14.98;;;7.97;;
75169;SDS011;63749;49.186;9.222;2023-02-28T11:14:29;14.45;;;7.78;;
75169;SDS011;63749;49.186;9.222;2023-02-28T11:17:00;13.27;;;7.55;;
75169;SDS011;63749;49.186;9.222;2023-02-28T11:19:43;13.48;;;8.35;;
75169;SDS011;63749;49.186;9.222;2023-02-28T11:22:11;12.97;;;7.90;;
75169;SDS011;63749;49.186;9.222;2023-02-28T11:24:57;13.35;;;8.27;;
75169;SDS011;63749;49.186;9.222;2023-02-28T11:27:26;13.63;;;7.90;;
75169;SDS011;63749;49.186;9.222;2023-02-28T11:29:55;14.60;;;8.93;;
75169;SDS011;63749;49.186;9.222;2023-02-28T11:32:25;15.17;;;9.00;;
75169;SDS011;63749;49.186;9.222;2023-02-28T11:35:55;13.68;;;8.25;;
75169;SDS011;63749;49.186;9.222;2023-02-28T11:37:55;17.25;;;8.85;;
75169;SDS011;63749;49.186;9.222;2023-02-28T11:40:24;15.70;;;8.80;;
75169;SDS011;63749;49.186;9.222;2023-02-28T11:51:34;16.75;;;8.48;;
75169;SDS011;63749;49.186;9.222;2023-02-28T11:56:51;12.05;;;7.53;;
75169;SDS011;63749;49.186;9.222;2023-02-28T11:59:41;11.27;;;6.73;;
75169;SDS011;63749;49.186;9.222;2023-02-28T12:02:45;14.82;;;9.15;;
75169;SDS011;63749;49.186;9.222;2023-02-28T12:05:23;15.75;;;9.38;;
75169;SDS011;63749;49.186;9.222;2023-02-28T12:07:57;14.77;;;9.10;;
75169;SDS011;63749;49.186;9.222;2023-02-28T12:13:23;14.93;;;9.07;;
75169;SDS011;63749;49.186;9.222;2023-02-28T12:27:15;14.43;;;9.30;;
75169;SDS011;63749;49.186;9.222;2023-02-28T12:30:04;15.38;;;8.95;;
75169;SDS011;63749;49.186;9.222;2023-02-28T12:33:08;16.80;;;9.50;;
75169;SDS011;63749;49.186;9.222;2023-02-28T12:35:33;17.23;;;9.80;;
75169;SDS011;63749;49.186;9.222;2023-02-28T12:38:06;15.90;;;9.38;;
75169;SDS011;63749;49.186;9.222;2023-02-28T12:40:47;16.33;;;9.50;;
75169;SDS011;63749;49.186;9.222;2023-02-28T12:43:17;12.20;;;6.90;;
75169;SDS011;63749;49.186;9.222;2023-02-28T12:45:58;14.32;;;9.25;;
75169;SDS011;63749;49.186;9.222;2023-02-28T12:48:30;16.42;;;8.52;;
75169;SDS011;63749;49.186;9.222;2023-02-28T12:51:02;16.05;;;9.32;;
75169;SDS011;63749;49.186;9.222;2023-02-28T12:57:07;15.20;;;9.05;;
75169;SDS011;63749;49.186;9.222;2023-02-28T12:59:34;15.57;;;9.75;;
75169;SDS011;63749;49.186;9.222;2023-02-28T13:10:46;14.90;;;9.02;;
75169;SDS011;63749;49.186;9.222;2023-02-28T13:13:19;14.50;;;9.60;;
75169;SDS011;63749;49.186;9.222;2023-02-28T13:16:05;13.48;;;8.05;;
75169;SDS011;63749;49.186;9.222;2023-02-28T13:18:35;14.38;;;9.35;;
75169;SDS011;63749;49.186;9.222;2023-02-28T13:21:05;15.50;;;9.20;;
75169;SDS011;63749;49.186;9.222;2023-02-28T13:26:12;14.38;;;9.00;;
75169;SDS011;63749;49.186;9.222;2023-02-28T13:31:26;15.23;;;9.13;;
75169;SDS011;63749;49.186;9.222;2023-02-28T13:36:29;15.25;;;8.15;;
75169;SDS011;63749;49.186;9.222;2023-02-28T13:38:57;20.02;;;9.73;;
75169;SDS011;63749;49.186;9.222;2023-02-28T13:44:01;15.93;;;10.00;;
75169;SDS011;63749;49.186;9.222;2023-02-28T13:46:30;16.88;;;10.27;;
75169;SDS011;63749;49.186;9.222;2023-02-28T13:49:17;17.43;;;10.33;;
75169;SDS011;63749;49.186;9.222;2023-02-28T14:06:23;17.63;;;10.50;;
75169;SDS011;63749;49.186;9.222;2023-02-28T14:08:57;23.88;;;11.80;;
75169;SDS011;63749;49.186;9.222;2023-02-28T14:11:36;18.35;;;10.63;;
75169;SDS011;63749;49.186;9.222;2023-02-28T14:14:04;20.80;;;11.18;;
75169;SDS011;63749;49.186;9.222;2023-02-28T14:16:36;19.30;;;10.53;;
75169;SDS011;63749;49.186;9.222;2023-02-28T14:19:14;17.17;;;11.18;;
75169;SDS011;63749;49.186;9.222;2023-02-28T14:33:38;26.55;;;14.40;;
75169;SDS011;63749;49.186;9.222;2023-02-28T14:36:26;21.92;;;11.65;;
75169;SDS011;63749;49.186;9.222;2023-02-28T14:38:57;27.77;;;14.02;;
75169;SDS011;63749;49.186;9.222;2023-02-28T14:44:00;17.50;;;11.70;;
75169;SDS011;63749;49.186;9.222;2023-02-28T14:46:28;16.20;;;10.90;;
75169;SDS011;63749;49.186;9.222;2023-02-28T14:49:00;15.77;;;10.45;;
75169;SDS011;63749;49.186;9.222;2023-02-28T14:51:26;14.40;;;10.40;;
75169;SDS011;63749;49.186;9.222;2023-02-28T14:53:56;14.07;;;10.75;;
75169;SDS011;63749;49.186;9.222;2023-02-28T14:56:25;14.67;;;10.07;;
75169;SDS011;63749;49.186;9.222;2023-02-28T14:58:55;13.93;;;10.48;;
75169;SDS011;63749;49.186;9.222;2023-02-28T15:01:22;12.60;;;9.45;;
75169;SDS011;63749;49.186;9.222;2023-02-28T15:03:56;13.75;;;10.18;;
75169;SDS011;63749;49.186;9.222;2023-02-28T15:06:27;14.77;;;10.32;;
75169;SDS011;63749;49.186;9.222;2023-02-28T15:09:06;13.47;;;10.40;;
75169;SDS011;63749;49.186;9.222;2023-02-28T15:11:33;13.75;;;9.95;;
75169;SDS011;63749;49.186;9.222;2023-02-28T15:14:00;14.68;;;11.20;;
75169;SDS011;63749;49.186;9.222;2023-02-28T15:16:36;13.05;;;10.18;;
75169;SDS011;63749;49.186;9.222;2023-02-28T15:19:13;14.75;;;10.60;;
75169;SDS011;63749;49.186;9.222;2023-02-28T15:21:50;15.20;;;10.90;;
75169;SDS011;63749;49.186;9.222;2023-02-28T15:26:57;16.20;;;11.00;;
75169;SDS011;63749;49.186;9.222;2023-02-28T15:29:25;14.88;;;10.48;;
75169;SDS011;63749;49.186;9.222;2023-02-28T15:31:57;14.02;;;8.98;;
75169;SDS011;63749;49.186;9.222;2023-02-28T15:34:27;13.57;;;10.30;;
75169;SDS011;63749;49.186;9.222;2023-02-28T15:36:59;14.98;;;10.10;;
75169;SDS011;63749;49.186;9.222;2023-02-28T15:39:25;14.23;;;10.07;;
75169;SDS011;63749;49.186;9.222;2023-02-28T15:42:09;12.68;;;8.88;;
75169;SDS011;63749;49.186;9.222;2023-02-28T15:44:43;15.27;;;10.52;;
75169;SDS011;63749;49.186;9.222;2023-02-28T15:47:22;14.40;;;9.53;;
75169;SDS011;63749;49.186;9.222;2023-02-28T15:49:55;15.85;;;9.30;;
75169;SDS011;63749;49.186;9.222;2023-02-28T15:55:24;13.98;;;9.00;;
75169;SDS011;63749;49.186;9.222;2023-02-28T15:57:57;14.83;;;9.10;;
75169;SDS011;63749;49.186;9.222;2023-02-28T16:00:26;14.15;;;7.80;;
75169;SDS011;63749;49.186;9.222;2023-02-28T16:02:57;13.98;;;9.48;;
75169;SDS011;63749;49.186;9.222;2023-02-28T16:05:30;16.63;;;9.10;;
75169;SDS011;63749;49.186;9.222;2023-02-28T16:07:58;14.60;;;9.00;;
75169;SDS011;63749;49.186;9.222;2023-02-28T16:10:26;16.40;;;8.85;;
75169;SDS011;63749;49.186;9.222;2023-02-28T16:12:53;15.45;;;8.55;;
75169;SDS011;63749;49.186;9.222;2023-02-28T16:15:21;15.45;;;9.20;;
75169;SDS011;63749;49.186;9.222;2023-02-28T16:17:47;14.67;;;8.93;;
75169;SDS011;63749;49.186;9.222;2023-02-28T16:20:14;15.65;;;8.35;;
75169;SDS011;63749;49.186;9.222;2023-02-28T16:22:41;15.10;;;8.50;;
75169;SDS011;63749;49.186;9.222;2023-02-28T16:25:08;15.70;;;8.57;;
75169;SDS011;63749;49.186;9.222;2023-02-28T16:27:37;15.68;;;8.10;;
75169;SDS011;63749;49.186;9.222;2023-02-28T16:30:03;19.23;;;9.00;;
75169;SDS011;63749;49.186;9.222;2023-02-28T16:32:30;16.08;;;8.80;;
75169;SDS011;63749;49.186;9.222;2023-02-28T16:34:59;19.60;;;9.90;;
75169;SDS011;63749;49.186;9.222;2023-02-28T16:37:26;16.23;;;8.00;;
75169;SDS011;63749;49.186;9.222;2023-02-28T16:39:52;14.63;;;7.20;;
75169;SDS011;63749;49.186;9.222;2023-02-28T16:42:20;16.43;;;8.17;;
75169;SDS011;63749;49.186;9.222;2023-02-28T16:44:48;18.38;;;9.07;;
75169;SDS011;63749;49.186;9.222;2023-02-28T16:47:14;16.53;;;9.37;;
75169;SDS011;63749;49.186;9.222;2023-02-28T16:49:39;17.07;;;8.23;;
75169;SDS011;63749;49.186;9.222;2023-02-28T16:52:07;12.98;;;6.90;;
75169;SDS011;63749;49.186;9.222;2023-02-28T16:54:33;17.17;;;8.03;;
75169;SDS011;63749;49.186;9.222;2023-02-28T16:56:58;16.30;;;8.00;;
75169;SDS011;63749;49.186;9.222;2023-02-28T16:59:24;18.98;;;9.40;;
75169;SDS011;63749;49.186;9.222;2023-02-28T17:01:52;18.60;;;9.00;;
75169;SDS011;63749;49.186;9.222;2023-02-28T17:04:18;14.82;;;7.43;;
75169;SDS011;63749;49.186;9.222;2023-02-28T17:06:44;18.27;;;8.50;;